sensor_id;sensor_type;location;lat;lon;timestamp;P1;durP1;ratioP1;P2;durP2;ratioP2
60086;SDS011;45960;53.630;55.972;2023-12-20T00:00:11;9.32;;;5.07;;
60086;SDS011;45960;53.630;55.972;2023-12-20T00:01:12;10.07;;;5.10;;
60086;SDS011;45960;53.630;55.972;2023-12-20T00:02:13;12.30;;;5.28;;
60086;SDS011;45960;53.630;55.972;2023-12-20T00:03:14;12.48;;;5.00;;
60086;SDS011;45960;53.630;55.972;2023-12-20T00:04:15;7.30;;;3.95;;
60086;SDS011;45960;53.630;55.972;2023-12-20T00:05:16;8.00;;;2.92;;
60086;SDS011;45960;53.630;55.972;2023-12-20T00:06:18;7.90;;;4.07;;
60086;SDS011;45960;53.630;55.972;2023-12-20T00:07:19;11.43;;;4.95;;
60086;SDS011;45960;53.630;55.972;2023-12-20T00:08:22;7.25;;;4.28;;
60086;SDS011;45960;53.630;55.972;2023-12-20T00:09:23;6.38;;;3.40;;
60086;SDS011;45960;53.630;55.972;2023-12-20T00:10:24;8.75;;;4.10;;
60086;SDS011;45960;53.630;55.972;2023-12-20T00:11:25;9.50;;;4.82;;
60086;SDS011;45960;53.630;55.972;2023-12-20T00:12:26;9.32;;;5.50;;
60086;SDS011;45960;53.630;55.972;2023-12-20T00:13:27;7.03;;;4.22;;
60086;SDS011;45960;53.630;55.972;2023-12-20T00:14:28;9.90;;;4.68;;
60086;SDS011;45960;53.630;55.972;2023-12-20T00:15:29;10.75;;;4.90;;
60086;SDS011;45960;53.630;55.972;2023-12-20T00:16:30;10.60;;;5.13;;
60086;SDS011;45960;53.630;55.972;2023-12-20T00:17:32;6.45;;;3.65;;
60086;SDS011;45960;53.630;55.972;2023-12-20T00:18:33;5.88;;;3.17;;
60086;SDS011;45960;53.630;55.972;2023-12-20T00:19:34;10.82;;;3.80;;
60086;SDS011;45960;53.630;55.972;2023-12-20T00:20:34;6.72;;;3.13;;
60086;SDS011;45960;53.630;55.972;2023-12-20T00:21:36;5.10;;;2.88;;
60086;SDS011;45960;53.630;55.972;2023-12-20T00:22:37;4.82;;;2.13;;
60086;SDS011;45960;53.630;55.972;2023-12-20T00:23:38;5.97;;;3.92;;
60086;SDS011;45960;53.630;55.972;2023-12-20T00:24:39;9.85;;;4.32;;
60086;SDS011;45960;53.630;55.972;2023-12-20T00:25:40;5.30;;;3.33;;
60086;SDS011;45960;53.630;55.972;2023-12-20T00:26:41;9.32;;;3.85;;
60086;SDS011;45960;53.630;55.972;2023-12-20T00:27:42;4.88;;;2.97;;
60086;SDS011;45960;53.630;55.972;2023-12-20T00:28:43;9.27;;;3.63;;
60086;SDS011;45960;53.630;55.972;2023-12-20T00:29:43;9.30;;;3.47;;
60086;SDS011;45960;53.630;55.972;2023-12-20T00:30:48;6.95;;;3.75;;
60086;SDS011;45960;53.630;55.972;2023-12-20T00:31:49;6.13;;;3.45;;
60086;SDS011;45960;53.630;55.972;2023-12-20T00:32:50;5.03;;;3.72;;
60086;SDS011;45960;53.630;55.972;2023-12-20T00:33:51;5.30;;;3.13;;
60086;SDS011;45960;53.630;55.972;2023-12-20T00:34:53;7.80;;;4.32;;
60086;SDS011;45960;53.630;55.972;2023-12-20T00:35:54;5.78;;;4.07;;
60086;SDS011;45960;53.630;55.972;2023-12-20T00:36:56;6.75;;;3.78;;
60086;SDS011;45960;53.630;55.972;2023-12-20T00:38:03;5.00;;;3.03;;
60086;SDS011;45960;53.630;55.972;2023-12-20T00:39:08;6.72;;;3.70;;
60086;SDS011;45960;53.630;55.972;2023-12-20T00:40:13;6.80;;;3.90;;
60086;SDS011;45960;53.630;55.972;2023-12-20T00:41:15;4.70;;;3.08;;
60086;SDS011;45960;53.630;55.972;2023-12-20T00:42:17;6.05;;;2.75;;
60086;SDS011;45960;53.630;55.972;2023-12-20T00:43:18;6.22;;;4.00;;
60086;SDS011;45960;53.630;55.972;2023-12-20T00:44:20;5.75;;;3.53;;
60086;SDS011;45960;53.630;55.972;2023-12-20T00:45:25;7.28;;;4.43;;
60086;SDS011;45960;53.630;55.972;2023-12-20T00:46:36;6.47;;;4.35;;
60086;SDS011;45960;53.630;55.972;2023-12-20T00:47:42;7.53;;;4.22;;
60086;SDS011;45960;53.630;55.972;2023-12-20T00:48:43;8.32;;;3.97;;
60086;SDS011;45960;53.630;55.972;2023-12-20T00:49:46;5.90;;;3.53;;
60086;SDS011;45960;53.630;55.972;2023-12-20T00:50:47;7.85;;;3.92;;
60086;SDS011;45960;53.630;55.972;2023-12-20T00:51:48;8.32;;;4.40;;
60086;SDS011;45960;53.630;55.972;2023-12-20T00:52:50;6.15;;;3.80;;
60086;SDS011;45960;53.630;55.972;2023-12-20T00:53:51;7.03;;;3.72;;
60086;SDS011;45960;53.630;55.972;2023-12-20T00:54:55;4.45;;;2.83;;
60086;SDS011;45960;53.630;55.972;2023-12-20T00:55:56;5.57;;;2.08;;
60086;SDS011;45960;53.630;55.972;2023-12-20T00:56:59;7.65;;;4.40;;
60086;SDS011;45960;53.630;55.972;2023-12-20T00:58:00;12.18;;;5.28;;
60086;SDS011;45960;53.630;55.972;2023-12-20T00:59:01;10.50;;;4.80;;
60086;SDS011;45960;53.630;55.972;2023-12-20T01:00:02;11.57;;;5.18;;
60086;SDS011;45960;53.630;55.972;2023-12-20T01:01:04;12.50;;;5.85;;
60086;SDS011;45960;53.630;55.972;2023-12-20T01:02:05;9.07;;;5.50;;
60086;SDS011;45960;53.630;55.972;2023-12-20T01:03:07;8.18;;;3.63;;
60086;SDS011;45960;53.630;55.972;2023-12-20T01:04:08;8.30;;;4.32;;
60086;SDS011;45960;53.630;55.972;2023-12-20T01:05:10;8.38;;;3.95;;
60086;SDS011;45960;53.630;55.972;2023-12-20T01:06:11;5.22;;;2.72;;
60086;SDS011;45960;53.630;55.972;2023-12-20T01:07:12;6.75;;;3.10;;
60086;SDS011;45960;53.630;55.972;2023-12-20T01:08:13;8.73;;;3.88;;
60086;SDS011;45960;53.630;55.972;2023-12-20T01:09:14;7.05;;;4.15;;
60086;SDS011;45960;53.630;55.972;2023-12-20T01:10:15;6.68;;;3.50;;
60086;SDS011;45960;53.630;55.972;2023-12-20T01:11:17;6.65;;;3.10;;
60086;SDS011;45960;53.630;55.972;2023-12-20T01:12:18;7.93;;;4.20;;
60086;SDS011;45960;53.630;55.972;2023-12-20T01:13:20;3.83;;;2.55;;
60086;SDS011;45960;53.630;55.972;2023-12-20T01:14:21;5.45;;;3.28;;
60086;SDS011;45960;53.630;55.972;2023-12-20T01:15:24;5.68;;;3.25;;
60086;SDS011;45960;53.630;55.972;2023-12-20T01:16:25;5.13;;;3.08;;
60086;SDS011;45960;53.630;55.972;2023-12-20T01:17:26;5.65;;;3.45;;
60086;SDS011;45960;53.630;55.972;2023-12-20T01:18:28;3.95;;;2.00;;
60086;SDS011;45960;53.630;55.972;2023-12-20T01:19:28;4.00;;;2.83;;
60086;SDS011;45960;53.630;55.972;2023-12-20T01:20:30;6.78;;;3.83;;
60086;SDS011;45960;53.630;55.972;2023-12-20T01:21:31;5.13;;;2.92;;
60086;SDS011;45960;53.630;55.972;2023-12-20T01:22:32;8.80;;;3.92;;
60086;SDS011;45960;53.630;55.972;2023-12-20T01:23:36;6.50;;;3.40;;
60086;SDS011;45960;53.630;55.972;2023-12-20T01:24:37;5.45;;;3.22;;
60086;SDS011;45960;53.630;55.972;2023-12-20T01:25:37;5.35;;;2.85;;
60086;SDS011;45960;53.630;55.972;2023-12-20T01:26:39;4.88;;;3.10;;
60086;SDS011;45960;53.630;55.972;2023-12-20T01:27:40;4.70;;;2.30;;
60086;SDS011;45960;53.630;55.972;2023-12-20T01:28:41;4.93;;;3.35;;
60086;SDS011;45960;53.630;55.972;2023-12-20T01:29:42;4.63;;;3.50;;
60086;SDS011;45960;53.630;55.972;2023-12-20T01:30:43;6.22;;;2.88;;
60086;SDS011;45960;53.630;55.972;2023-12-20T01:31:44;5.43;;;2.70;;
60086;SDS011;45960;53.630;55.972;2023-12-20T01:32:45;6.82;;;3.58;;
60086;SDS011;45960;53.630;55.972;2023-12-20T01:33:46;4.28;;;2.85;;
60086;SDS011;45960;53.630;55.972;2023-12-20T01:34:47;4.40;;;2.55;;
60086;SDS011;45960;53.630;55.972;2023-12-20T01:35:49;4.30;;;2.17;;
60086;SDS011;45960;53.630;55.972;2023-12-20T01:36:50;5.40;;;2.42;;
60086;SDS011;45960;53.630;55.972;2023-12-20T01:37:51;3.30;;;1.73;;
60086;SDS011;45960;53.630;55.972;2023-12-20T01:38:52;5.55;;;2.75;;
60086;SDS011;45960;53.630;55.972;2023-12-20T01:39:53;6.22;;;2.70;;
60086;SDS011;45960;53.630;55.972;2023-12-20T01:40:54;4.32;;;2.63;;
60086;SDS011;45960;53.630;55.972;2023-12-20T01:41:55;4.68;;;2.85;;
60086;SDS011;45960;53.630;55.972;2023-12-20T01:43:00;3.53;;;2.30;;
60086;SDS011;45960;53.630;55.972;2023-12-20T01:44:08;2.65;;;1.77;;
60086;SDS011;45960;53.630;55.972;2023-12-20T01:45:09;3.05;;;1.55;;
60086;SDS011;45960;53.630;55.972;2023-12-20T01:46:10;5.88;;;3.08;;
60086;SDS011;45960;53.630;55.972;2023-12-20T01:47:13;4.45;;;2.50;;
60086;SDS011;45960;53.630;55.972;2023-12-20T01:48:15;4.00;;;2.05;;
60086;SDS011;45960;53.630;55.972;2023-12-20T01:49:17;5.90;;;3.00;;
60086;SDS011;45960;53.630;55.972;2023-12-20T01:50:18;5.45;;;2.60;;
60086;SDS011;45960;53.630;55.972;2023-12-20T01:51:19;5.65;;;2.40;;
60086;SDS011;45960;53.630;55.972;2023-12-20T01:52:21;5.25;;;3.22;;
60086;SDS011;45960;53.630;55.972;2023-12-20T01:53:23;4.20;;;2.78;;
60086;SDS011;45960;53.630;55.972;2023-12-20T01:54:25;4.20;;;3.45;;
60086;SDS011;45960;53.630;55.972;2023-12-20T01:55:27;8.38;;;3.17;;
60086;SDS011;45960;53.630;55.972;2023-12-20T01:56:31;7.47;;;3.83;;
60086;SDS011;45960;53.630;55.972;2023-12-20T01:57:34;9.65;;;4.93;;
60086;SDS011;45960;53.630;55.972;2023-12-20T01:58:37;5.70;;;4.57;;
60086;SDS011;45960;53.630;55.972;2023-12-20T01:59:43;3.63;;;2.67;;
60086;SDS011;45960;53.630;55.972;2023-12-20T02:00:44;5.15;;;2.78;;
60086;SDS011;45960;53.630;55.972;2023-12-20T02:01:45;4.90;;;3.75;;
60086;SDS011;45960;53.630;55.972;2023-12-20T02:02:46;5.07;;;2.90;;
60086;SDS011;45960;53.630;55.972;2023-12-20T02:03:48;4.43;;;2.58;;
60086;SDS011;45960;53.630;55.972;2023-12-20T02:04:49;5.28;;;3.45;;
60086;SDS011;45960;53.630;55.972;2023-12-20T02:05:51;6.85;;;3.03;;
60086;SDS011;45960;53.630;55.972;2023-12-20T02:06:53;4.68;;;2.53;;
60086;SDS011;45960;53.630;55.972;2023-12-20T02:07:55;3.20;;;1.63;;
60086;SDS011;45960;53.630;55.972;2023-12-20T02:08:57;3.83;;;2.30;;
60086;SDS011;45960;53.630;55.972;2023-12-20T02:09:59;3.65;;;2.67;;
60086;SDS011;45960;53.630;55.972;2023-12-20T02:11:00;4.82;;;3.08;;
60086;SDS011;45960;53.630;55.972;2023-12-20T02:12:01;7.15;;;3.30;;
60086;SDS011;45960;53.630;55.972;2023-12-20T02:13:03;3.67;;;2.72;;
60086;SDS011;45960;53.630;55.972;2023-12-20T02:14:05;4.45;;;2.80;;
60086;SDS011;45960;53.630;55.972;2023-12-20T02:15:06;3.88;;;2.75;;
60086;SDS011;45960;53.630;55.972;2023-12-20T02:16:08;4.68;;;2.63;;
60086;SDS011;45960;53.630;55.972;2023-12-20T02:17:09;6.50;;;3.47;;
60086;SDS011;45960;53.630;55.972;2023-12-20T02:18:10;3.83;;;2.60;;
60086;SDS011;45960;53.630;55.972;2023-12-20T02:19:15;6.47;;;2.50;;
60086;SDS011;45960;53.630;55.972;2023-12-20T02:20:18;3.63;;;2.10;;
60086;SDS011;45960;53.630;55.972;2023-12-20T02:21:24;6.28;;;2.63;;
60086;SDS011;45960;53.630;55.972;2023-12-20T02:22:26;4.07;;;2.08;;
60086;SDS011;45960;53.630;55.972;2023-12-20T02:23:27;4.05;;;2.25;;
60086;SDS011;45960;53.630;55.972;2023-12-20T02:24:28;6.25;;;3.10;;
60086;SDS011;45960;53.630;55.972;2023-12-20T02:25:28;4.22;;;2.53;;
60086;SDS011;45960;53.630;55.972;2023-12-20T02:26:31;3.83;;;2.33;;
60086;SDS011;45960;53.630;55.972;2023-12-20T02:27:33;3.72;;;2.20;;
60086;SDS011;45960;53.630;55.972;2023-12-20T02:28:35;4.70;;;2.15;;
60086;SDS011;45960;53.630;55.972;2023-12-20T02:29:36;4.40;;;2.75;;
60086;SDS011;45960;53.630;55.972;2023-12-20T02:30:37;4.35;;;2.42;;
60086;SDS011;45960;53.630;55.972;2023-12-20T02:31:38;7.53;;;3.80;;
60086;SDS011;45960;53.630;55.972;2023-12-20T02:32:39;4.40;;;2.55;;
60086;SDS011;45960;53.630;55.972;2023-12-20T02:33:40;4.15;;;2.15;;
60086;SDS011;45960;53.630;55.972;2023-12-20T02:34:42;11.10;;;2.65;;
60086;SDS011;45960;53.630;55.972;2023-12-20T02:35:43;8.88;;;3.00;;
60086;SDS011;45960;53.630;55.972;2023-12-20T02:36:44;3.50;;;1.77;;
60086;SDS011;45960;53.630;55.972;2023-12-20T02:37:45;4.32;;;2.20;;
60086;SDS011;45960;53.630;55.972;2023-12-20T02:38:46;7.70;;;3.03;;
60086;SDS011;45960;53.630;55.972;2023-12-20T02:39:48;6.00;;;2.72;;
60086;SDS011;45960;53.630;55.972;2023-12-20T02:40:49;4.05;;;2.75;;
60086;SDS011;45960;53.630;55.972;2023-12-20T02:41:50;6.32;;;2.85;;
60086;SDS011;45960;53.630;55.972;2023-12-20T02:42:51;7.95;;;3.30;;
60086;SDS011;45960;53.630;55.972;2023-12-20T02:43:52;5.10;;;3.15;;
60086;SDS011;45960;53.630;55.972;2023-12-20T02:44:53;6.40;;;2.80;;
60086;SDS011;45960;53.630;55.972;2023-12-20T02:45:54;6.20;;;3.13;;
60086;SDS011;45960;53.630;55.972;2023-12-20T02:46:55;7.05;;;3.20;;
60086;SDS011;45960;53.630;55.972;2023-12-20T02:47:55;5.60;;;3.00;;
60086;SDS011;45960;53.630;55.972;2023-12-20T02:48:56;5.07;;;3.08;;
60086;SDS011;45960;53.630;55.972;2023-12-20T02:49:57;7.90;;;3.42;;
60086;SDS011;45960;53.630;55.972;2023-12-20T02:50:58;5.35;;;3.65;;
60086;SDS011;45960;53.630;55.972;2023-12-20T02:51:59;4.55;;;2.70;;
